Terminal Aerodrome Forecast
Issued by NWS

Home | Current Version | Previous Version | Text Only | Print | Product List | Glossary On
Versions: 1 2 3 4 5 6 7 8 9 10 11 12 13 14
897
FTUS43 KMQT 291125
TAFCMX
TAF
KCMX 291125Z 2912/3012 09006KT P6SM SCT010
      TEMPO 2912/2914 BKN010
     FM291800 11008KT P6SM BKN200=

USA.gov is the U.S. government's official web portal to all federal, state and local government web resources and services.